createdAt,value
2018-07-15T00:02:16.754Z,3.67
2018-07-15T00:04:52.425Z,3.57
2018-07-15T00:07:29.525Z,4.40
2018-07-15T00:10:05.308Z,7.00
2018-07-15T00:12:52.061Z,3.37
2018-07-15T00:15:40.018Z,4.03
2018-07-15T00:18:36.523Z,3.30
2018-07-15T00:21:20.646Z,3.20
2018-07-15T00:24:01.578Z,3.40
2018-07-15T00:26:40.528Z,3.67
2018-07-15T00:29:39.530Z,4.17
2018-07-15T00:32:27.551Z,4.43
2018-07-15T00:35:27.096Z,3.53
2018-07-15T00:38:07.963Z,2.97
2018-07-15T00:43:51.380Z,3.73
2018-07-15T00:46:30.472Z,4.73
2018-07-15T00:49:15.274Z,4.23
2018-07-15T00:51:58.094Z,3.43
2018-07-15T00:54:52.516Z,3.77
2018-07-15T00:57:33.928Z,3.43
2018-07-15T01:00:12.172Z,3.83
2018-07-15T01:02:52.055Z,2.90
2018-07-15T01:05:41.002Z,3.57
2018-07-15T01:11:26.613Z,4.00
2018-07-15T01:14:03.504Z,3.73
2018-07-15T01:16:44.851Z,3.17
2018-07-15T01:28:21.307Z,3.77
2018-07-15T01:31:05.432Z,3.67
2018-07-15T01:33:57.811Z,3.83
2018-07-15T01:36:52.914Z,3.23
2018-07-15T01:40:41.758Z,4.73
2018-07-15T01:43:42.164Z,4.87
2018-07-15T01:46:32.330Z,3.83
2018-07-15T01:52:41.338Z,4.63
2018-07-15T01:55:36.072Z,3.30
2018-07-15T02:01:11.670Z,3.20
2018-07-15T02:03:57.452Z,4.17
2018-07-15T02:06:42.562Z,2.80
2018-07-15T02:09:37.832Z,3.77
2018-07-15T02:12:08.676Z,3.27
2018-07-15T02:14:55.053Z,5.17
2018-07-15T02:17:38.474Z,3.40
2018-07-15T02:20:39.169Z,4.40
2018-07-15T02:23:33.111Z,3.33
2018-07-15T02:27:24.150Z,3.80
2018-07-15T02:33:32.372Z,4.00
2018-07-15T02:36:27.082Z,3.47
2018-07-15T02:42:21.062Z,5.67
2018-07-15T02:51:51.726Z,5.73
2018-07-15T02:54:43.562Z,5.57
2018-07-15T02:57:57.687Z,4.63
2018-07-15T03:07:47.408Z,3.83
2018-07-15T03:17:13.503Z,4.33
2018-07-15T03:20:16.664Z,3.83
2018-07-15T03:23:13.565Z,3.57
2018-07-15T03:25:54.829Z,4.73
2018-07-15T03:28:42.679Z,4.30
2018-07-15T03:31:40.734Z,4.20
2018-07-15T03:34:21.667Z,7.47
2018-07-15T03:36:51.613Z,5.17
2018-07-15T03:39:23.147Z,4.83
2018-07-15T03:42:00.450Z,4.47
2018-07-15T03:50:41.618Z,4.30
2018-07-15T03:53:10.222Z,5.10
2018-07-15T03:59:17.449Z,3.70
2018-07-15T04:09:38.083Z,4.87
2018-07-15T04:12:42.740Z,5.00
2018-07-15T04:15:52.298Z,5.37
2018-07-15T04:19:26.560Z,4.17
2018-07-15T04:22:11.544Z,3.90
2018-07-15T04:25:15.809Z,5.40
2018-07-15T04:28:52.098Z,3.60
2018-07-15T04:32:24.254Z,7.10
2018-07-15T04:38:41.369Z,4.60
2018-07-15T04:42:17.466Z,3.77
2018-07-15T04:48:29.441Z,5.50
2018-07-15T05:05:18.943Z,4.07
2018-07-15T05:09:22.606Z,4.87
2018-07-15T05:13:22.743Z,3.30
2018-07-15T05:16:38.701Z,4.50
2018-07-15T05:19:41.605Z,3.67
2018-07-15T05:26:50.654Z,3.83
2018-07-15T05:29:51.653Z,4.07
2018-07-15T05:44:09.293Z,3.40
2018-07-15T06:06:48.906Z,3.37
2018-07-15T06:13:22.287Z,2.90
2018-07-15T06:15:56.692Z,2.60
2018-07-15T06:18:26.224Z,3.07
2018-07-15T06:28:38.689Z,2.37
2018-07-15T06:32:51.470Z,2.77
2018-07-15T06:36:11.967Z,2.07
2018-07-15T06:44:53.845Z,2.57
2018-07-15T06:48:07.397Z,2.83
2018-07-15T06:51:10.417Z,2.05
2018-07-15T06:54:43.603Z,1.62
2018-07-15T07:01:17.371Z,2.00
2018-07-15T07:07:22.670Z,2.72
2018-07-15T07:10:20.532Z,2.22
2018-07-15T07:19:37.349Z,1.30
2018-07-15T07:28:44.010Z,1.37
2018-07-15T07:31:30.337Z,1.50
2018-07-15T07:34:17.036Z,1.35
2018-07-15T07:37:40.774Z,1.60
2018-07-15T07:40:11.249Z,1.40
2018-07-15T07:42:41.381Z,2.08
2018-07-15T07:45:14.018Z,1.82
2018-07-15T07:47:57.576Z,1.75
2018-07-15T07:50:41.382Z,1.72
2018-07-15T07:53:12.101Z,1.92
2018-07-15T07:55:48.238Z,1.98
2018-07-15T07:58:27.408Z,1.80
2018-07-15T08:01:02.891Z,3.80
2018-07-15T08:03:32.826Z,2.12
2018-07-15T08:06:30.330Z,1.70
2018-07-15T08:09:13.231Z,1.62
2018-07-15T08:11:49.420Z,1.65
2018-07-15T08:14:21.893Z,1.37
2018-07-15T08:19:28.669Z,1.72
2018-07-15T08:21:57.256Z,1.17
2018-07-15T08:24:29.152Z,1.20
2018-07-15T08:27:06.756Z,2.12
2018-07-15T08:29:35.518Z,1.60
2018-07-15T08:32:09.568Z,2.15
2018-07-15T08:34:42.926Z,1.70
2018-07-15T08:37:14.311Z,1.82
2018-07-15T08:39:47.032Z,1.90
2018-07-15T08:42:20.195Z,1.65
2018-07-15T08:44:51.464Z,1.72
2018-07-15T08:47:23.540Z,2.30
2018-07-15T08:49:55.457Z,1.90
2018-07-15T08:52:28.205Z,2.15
2018-07-15T08:55:00.206Z,1.82
2018-07-15T08:57:33.687Z,1.25
2018-07-15T09:00:03.863Z,1.50
2018-07-15T09:02:33.797Z,3.62
2018-07-15T09:05:05.083Z,1.87
2018-07-15T09:07:37.861Z,2.10
2018-07-15T09:10:08.630Z,2.20
2018-07-15T09:12:42.139Z,1.40
2018-07-15T09:15:15.509Z,1.90
2018-07-15T09:17:51.352Z,1.67
2018-07-15T09:20:22.137Z,1.47
2018-07-15T09:23:05.563Z,1.60
2018-07-15T09:25:44.765Z,2.52
2018-07-15T09:28:19.841Z,1.60
2018-07-15T09:30:54.681Z,1.75
2018-07-15T09:36:35.588Z,2.10
2018-07-15T09:39:10.042Z,1.90
2018-07-15T09:41:39.071Z,1.50
2018-07-15T09:44:11.365Z,2.42
2018-07-15T09:46:43.553Z,2.22
2018-07-15T09:49:13.575Z,1.85
2018-07-15T09:51:44.369Z,1.98
2018-07-15T09:54:18.164Z,2.02
2018-07-15T09:56:49.470Z,2.45
2018-07-15T09:59:21.952Z,1.60
2018-07-15T10:01:54.640Z,2.15
2018-07-15T10:04:27.616Z,1.67
2018-07-15T10:06:57.335Z,2.15
2018-07-15T10:09:35.258Z,2.20
2018-07-15T10:14:49.501Z,1.87
2018-07-15T10:17:27.773Z,2.35
2018-07-15T10:19:59.581Z,1.80
2018-07-15T10:22:30.044Z,1.95
2018-07-15T10:25:10.139Z,1.90
2018-07-15T10:27:45.173Z,2.22
2018-07-15T10:30:19.051Z,1.47
2018-07-15T10:32:59.961Z,1.57
2018-07-15T10:35:29.603Z,2.52
2018-07-15T10:38:09.095Z,1.95
2018-07-15T10:40:38.054Z,2.12
2018-07-15T10:43:08.360Z,2.70
2018-07-15T10:45:37.521Z,3.72
2018-07-15T10:48:16.159Z,2.00
2018-07-15T10:50:45.326Z,2.60
2018-07-15T10:53:14.637Z,1.98
2018-07-15T10:55:44.645Z,1.80
2018-07-15T10:58:16.872Z,1.80
2018-07-15T11:00:48.940Z,2.22
2018-07-15T11:03:18.930Z,1.90
2018-07-15T11:06:21.997Z,2.60
2018-07-15T11:08:53.911Z,2.80
2018-07-15T11:11:36.027Z,2.60
2018-07-15T11:14:17.488Z,2.67
2018-07-15T11:16:55.053Z,2.00
2018-07-15T11:19:37.107Z,2.05
2018-07-15T11:22:06.074Z,2.65
2018-07-15T11:24:38.316Z,3.70
2018-07-15T11:27:17.481Z,4.25
2018-07-15T11:35:16.984Z,2.62
2018-07-15T11:37:49.443Z,2.83
2018-07-15T11:43:13.962Z,2.00
2018-07-15T11:45:43.073Z,2.72
2018-07-15T11:48:15.445Z,3.15
2018-07-15T11:51:01.070Z,2.85
2018-07-15T11:56:43.351Z,2.50
2018-07-15T12:01:49.807Z,2.20
2018-07-15T12:04:28.938Z,4.33
2018-07-15T12:06:59.638Z,2.80
2018-07-15T12:12:22.706Z,2.45
2018-07-15T12:14:55.356Z,3.25
2018-07-15T12:17:28.008Z,2.98
2018-07-15T12:19:59.920Z,2.92
2018-07-15T12:22:30.864Z,2.12
2018-07-15T12:25:06.308Z,3.25
2018-07-15T12:27:36.148Z,3.55
2018-07-15T12:30:13.096Z,4.70
2018-07-15T12:32:51.898Z,3.77
2018-07-15T12:35:23.625Z,3.85
2018-07-15T12:37:56.324Z,3.77
2018-07-15T12:40:25.300Z,3.58
2018-07-15T12:42:56.912Z,4.75
2018-07-15T12:45:31.455Z,4.33
2018-07-15T12:48:00.329Z,3.37
2018-07-15T12:50:32.402Z,3.00
2018-07-15T12:53:01.947Z,3.17
2018-07-15T12:55:40.016Z,3.67
2018-07-15T12:58:11.949Z,3.87
2018-07-15T13:00:41.771Z,3.52
2018-07-15T13:03:23.331Z,5.37
2018-07-15T13:06:15.380Z,4.72
2018-07-15T13:08:45.017Z,3.85
2018-07-15T13:11:16.401Z,4.12
2018-07-15T13:13:45.297Z,3.72
2018-07-15T13:16:16.111Z,4.03
2018-07-15T13:18:47.580Z,3.55
2018-07-15T13:21:18.161Z,3.98
2018-07-15T13:23:47.800Z,3.45
2018-07-15T13:29:17.967Z,3.52
2018-07-15T13:31:49.157Z,2.85
2018-07-15T13:34:20.119Z,2.72
2018-07-15T13:36:50.387Z,4.78
2018-07-15T13:39:20.647Z,2.62
2018-07-15T13:41:53.149Z,4.08
2018-07-15T13:44:22.429Z,2.60
2018-07-15T13:46:52.693Z,2.80
2018-07-15T13:49:22.991Z,2.12
2018-07-15T13:51:52.055Z,2.62
2018-07-15T13:54:22.203Z,2.10
2018-07-15T13:56:51.712Z,2.00
2018-07-15T13:59:23.140Z,2.55
2018-07-15T14:01:57.019Z,2.30
2018-07-15T14:04:28.638Z,1.70
2018-07-15T14:06:57.898Z,2.50
2018-07-15T14:09:28.855Z,2.10
2018-07-15T14:11:58.716Z,1.95
2018-07-15T14:14:29.014Z,1.90
2018-07-15T14:17:00.734Z,1.90
2018-07-15T14:19:33.624Z,2.33
2018-07-15T14:22:02.780Z,2.00
2018-07-15T14:24:33.172Z,1.63
2018-07-15T14:27:02.611Z,2.13
2018-07-15T14:29:34.291Z,1.73
2018-07-15T14:32:04.290Z,2.03
2018-07-15T14:34:52.810Z,2.13
2018-07-15T14:37:24.455Z,2.00
2018-07-15T14:40:01.621Z,1.50
2018-07-15T14:42:43.966Z,2.30
2018-07-15T14:45:16.612Z,2.03
2018-07-15T14:47:48.235Z,1.70
2018-07-15T14:50:21.302Z,2.07
2018-07-15T14:52:52.673Z,2.13
2018-07-15T14:55:45.682Z,1.90
2018-07-15T14:58:14.743Z,2.03
2018-07-15T15:03:29.572Z,2.60
2018-07-15T15:06:01.657Z,2.53
2018-07-15T15:08:31.884Z,1.70
2018-07-15T15:11:03.527Z,1.73
2018-07-15T15:13:36.450Z,2.00
2018-07-15T15:16:06.218Z,1.83
2018-07-15T15:18:35.228Z,1.60
2018-07-15T15:21:17.328Z,1.57
2018-07-15T15:26:48.178Z,2.63
2018-07-15T15:29:43.358Z,1.67
2018-07-15T15:32:26.754Z,1.97
2018-07-15T15:35:03.793Z,1.77
2018-07-15T15:37:34.985Z,1.70
2018-07-15T15:40:09.059Z,2.00
2018-07-15T15:42:39.456Z,1.50
2018-07-15T15:45:10.547Z,1.60
2018-07-15T15:47:49.621Z,1.40
2018-07-15T15:50:18.636Z,1.50
2018-07-15T15:52:49.743Z,2.47
2018-07-15T15:55:19.961Z,4.53
2018-07-15T15:57:51.844Z,1.87
2018-07-15T16:00:21.277Z,1.90
2018-07-15T16:05:58.155Z,1.60
2018-07-15T16:08:38.273Z,2.20
2018-07-15T16:11:09.790Z,1.60
2018-07-15T16:13:39.962Z,2.20
2018-07-15T16:16:10.932Z,1.10
2018-07-15T16:18:41.969Z,1.50
2018-07-15T16:21:12.411Z,2.90
2018-07-15T16:23:44.157Z,1.40
2018-07-15T16:26:20.725Z,1.20
2018-07-15T16:28:53.808Z,1.40
2018-07-15T16:31:27.264Z,1.90
2018-07-15T16:34:29.031Z,1.30
2018-07-15T16:37:02.748Z,1.50
2018-07-15T16:39:34.031Z,1.30
2018-07-15T16:42:08.079Z,1.80
2018-07-15T16:44:37.236Z,1.83
2018-07-15T16:47:06.195Z,1.77
2018-07-15T16:49:38.863Z,1.60
2018-07-15T16:52:07.839Z,2.30
2018-07-15T16:54:39.305Z,1.40
2018-07-15T16:57:08.527Z,1.53
2018-07-15T16:59:46.943Z,1.97
2018-07-15T17:02:18.221Z,1.80
2018-07-15T17:04:49.088Z,1.50
2018-07-15T17:07:20.360Z,1.90
2018-07-15T17:09:51.131Z,1.50
2018-07-15T17:12:20.498Z,1.13
2018-07-15T17:14:52.922Z,1.10
2018-07-15T17:17:23.227Z,1.30
2018-07-15T17:19:54.590Z,1.00
2018-07-15T17:22:24.075Z,1.53
2018-07-15T17:24:55.575Z,1.70
2018-07-15T17:27:27.834Z,2.30
2018-07-15T17:30:01.305Z,1.20
2018-07-15T17:32:33.923Z,2.13
2018-07-15T17:35:06.196Z,0.90
2018-07-15T17:37:35.291Z,1.10
2018-07-15T17:40:04.320Z,1.30
2018-07-15T17:42:35.842Z,1.40
2018-07-15T17:45:04.846Z,1.20
2018-07-15T17:47:38.757Z,1.97
2018-07-15T17:50:11.421Z,1.53
2018-07-15T17:52:43.210Z,1.37
2018-07-15T17:55:15.160Z,1.40
2018-07-15T18:06:45.949Z,0.90
2018-07-15T18:09:16.239Z,1.80
2018-07-15T18:11:48.623Z,0.90
2018-07-15T18:14:24.003Z,1.50
2018-07-15T18:16:56.783Z,2.33
2018-07-15T18:19:26.864Z,1.30
2018-07-15T18:21:59.023Z,1.27
2018-07-15T18:24:28.204Z,2.60
2018-07-15T18:27:02.433Z,1.40
2018-07-15T18:29:54.410Z,2.63
2018-07-15T18:32:23.716Z,2.20
2018-07-15T18:34:54.545Z,1.60
2018-07-15T18:37:26.735Z,1.50
2018-07-15T18:40:14.737Z,2.17
2018-07-15T18:42:47.652Z,4.43
2018-07-15T18:45:34.636Z,1.63
2018-07-15T18:48:06.207Z,1.87
2018-07-15T18:50:34.823Z,1.87
2018-07-15T18:53:05.159Z,2.63
2018-07-15T18:55:45.917Z,1.80
2018-07-15T18:58:30.445Z,3.40
2018-07-15T19:01:10.658Z,2.13
2018-07-15T19:03:50.415Z,1.80
2018-07-15T19:06:25.973Z,1.90
2018-07-15T19:08:55.091Z,1.90
2018-07-15T19:11:23.921Z,2.27
2018-07-15T19:13:52.201Z,3.73
2018-07-15T19:16:22.311Z,1.40
2018-07-15T19:18:50.997Z,2.47
2018-07-15T19:21:24.695Z,2.07
2018-07-15T19:23:56.574Z,1.73
2018-07-15T19:26:25.277Z,1.50
2018-07-15T19:28:54.066Z,1.37
2018-07-15T19:31:24.263Z,1.70
2018-07-15T19:33:52.748Z,1.70
2018-07-15T19:36:21.934Z,1.93
2018-07-15T19:38:50.627Z,1.50
2018-07-15T19:41:19.382Z,1.60
2018-07-15T19:43:48.419Z,1.60
2018-07-15T19:46:17.450Z,2.30
2018-07-15T19:48:48.828Z,1.97
2018-07-15T19:51:17.292Z,1.77
2018-07-15T19:53:46.041Z,2.17
2018-07-15T19:56:16.056Z,3.57
2018-07-15T19:58:44.559Z,2.13
2018-07-15T20:01:14.821Z,2.63
2018-07-15T20:03:43.102Z,1.77
2018-07-15T20:06:11.580Z,2.60
2018-07-15T20:14:43.921Z,4.27
2018-07-15T20:17:12.185Z,6.10
2018-07-15T20:19:41.141Z,2.60
2018-07-15T20:22:09.445Z,3.30
2018-07-15T20:24:41.081Z,3.13
2018-07-15T20:27:09.478Z,3.17
2018-07-15T20:29:38.714Z,1.90
2018-07-15T20:32:07.108Z,2.20
2018-07-15T20:34:35.373Z,4.37
2018-07-15T20:37:03.703Z,2.10
2018-07-15T20:39:31.965Z,3.00
2018-07-15T20:42:00.172Z,2.40
2018-07-15T20:44:28.443Z,1.90
2018-07-15T20:46:56.638Z,3.10
2018-07-15T20:49:24.871Z,2.67
2018-07-15T20:51:53.372Z,4.33
2018-07-15T20:54:21.716Z,1.93
2018-07-15T20:56:49.811Z,2.70
2018-07-15T20:59:18.014Z,1.97
2018-07-15T21:01:46.169Z,2.43
2018-07-15T21:04:14.606Z,3.17
2018-07-15T21:06:42.844Z,1.90
2018-07-15T21:09:11.048Z,2.50
2018-07-15T21:11:39.250Z,2.90
2018-07-15T21:14:07.649Z,2.80
2018-07-15T21:16:35.776Z,2.50
2018-07-15T21:19:06.367Z,4.80
2018-07-15T21:21:38.719Z,4.23
2018-07-15T21:24:07.169Z,2.30
2018-07-15T21:26:38.413Z,3.30
2018-07-15T21:29:21.475Z,2.17
2018-07-15T21:31:57.552Z,1.87
2018-07-15T21:34:31.866Z,2.33
2018-07-15T21:37:01.557Z,2.10
2018-07-15T21:39:32.744Z,2.33
2018-07-15T21:42:01.597Z,1.97
2018-07-15T21:44:34.026Z,3.47
2018-07-15T21:47:09.404Z,2.00
2018-07-15T21:49:38.460Z,2.47
2018-07-15T21:52:10.560Z,2.17
2018-07-15T21:54:39.250Z,2.30
2018-07-15T21:57:10.171Z,3.03
2018-07-15T21:59:43.905Z,2.80
2018-07-15T22:02:18.904Z,1.80
2018-07-15T22:04:49.555Z,2.00
2018-07-15T22:07:34.808Z,3.47
2018-07-15T22:10:20.081Z,2.03
2018-07-15T22:12:57.700Z,2.57
2018-07-15T22:15:26.483Z,2.13
2018-07-15T22:17:59.508Z,3.43
2018-07-15T22:20:33.011Z,2.20
2018-07-15T22:23:04.230Z,3.43
2018-07-15T22:25:36.472Z,3.03
2018-07-15T22:28:06.403Z,1.70
2018-07-15T22:30:38.521Z,2.03
2018-07-15T22:33:14.643Z,2.27
2018-07-15T22:35:48.891Z,2.97
2018-07-15T22:38:20.275Z,2.53
2018-07-15T22:40:59.183Z,1.70
2018-07-15T22:43:34.001Z,2.80
2018-07-15T22:46:04.655Z,1.90
2018-07-15T22:48:34.105Z,2.67
2018-07-15T22:51:06.643Z,2.17
2018-07-15T22:53:36.249Z,2.33
2018-07-15T22:56:06.564Z,2.00
2018-07-15T22:58:37.065Z,2.87
2018-07-15T23:01:09.453Z,2.23
2018-07-15T23:03:38.888Z,2.20
2018-07-15T23:06:21.864Z,2.30
2018-07-15T23:08:51.150Z,2.90
2018-07-15T23:11:23.261Z,4.20
2018-07-15T23:13:53.060Z,2.37
2018-07-15T23:16:23.308Z,2.33
2018-07-15T23:18:52.267Z,2.03
2018-07-15T23:21:23.035Z,2.03
2018-07-15T23:23:59.848Z,1.70
2018-07-15T23:26:35.768Z,2.53
2018-07-15T23:29:05.138Z,2.83
2018-07-15T23:31:34.144Z,2.30
2018-07-15T23:34:05.176Z,2.50
2018-07-15T23:36:34.062Z,2.80
2018-07-15T23:39:10.166Z,2.30
2018-07-15T23:41:41.254Z,2.30
2018-07-15T23:44:10.172Z,2.47
2018-07-15T23:46:43.685Z,2.10
2018-07-15T23:49:13.992Z,3.60
2018-07-15T23:51:43.904Z,3.00
2018-07-15T23:54:13.566Z,2.60
2018-07-15T23:56:43.232Z,2.47
2018-07-15T23:59:12.686Z,2.33
